Time;durP1;ratioP1;P1;durP2;ratioP2;P2;SDS_P1;SDS_P2;PMS_P1;PMS_P2;Temp;Humidity;BMP_temperature;BMP_pressure;BME280_temperature;BME280_humidity;BME280_pressure;Samples;Min_cycle;Max_cycle;Signal;HPM_P1;HPM_P2
2022/01/11 00:00:27;;;;;;;69.60;20.23;;;;;;;-0.77;97.98;103057.75;5051046;28;20388;-87
2022/01/11 00:03:12;;;;;;;58.17;20.27;;;;;;;-0.80;97.78;103049.75;5022816;28;20480;-87
2022/01/11 00:08:09;;;;;;;56.88;19.40;;;;;;;-0.75;98.27;103065.66;5034632;28;20044;-87
2022/01/11 00:10:47;;;;;;;40.50;20.60;;;;;;;-0.73;98.40;103070.13;5050389;28;20144;-86
2022/01/11 00:13:13;;;;;;;48.72;20.80;;;;;;;-0.78;98.70;103079.38;5019325;28;20136;-87
2022/01/11 00:15:39;;;;;;;49.50;19.85;;;;;;;-0.75;98.02;103073.44;5050709;28;20139;-87
2022/01/11 00:18:05;;;;;;;55.03;22.33;;;;;;;-0.76;98.42;103072.56;5017683;28;20408;-87
2022/01/11 00:20:30;;;;;;;55.17;18.88;;;;;;;-0.73;97.71;103085.75;5002352;28;20111;-87
2022/01/11 00:25:26;;;;;;;53.55;19.35;;;;;;;-0.78;97.78;103076.75;5030876;28;20545;-87
2022/01/11 00:27:51;;;;;;;55.90;20.15;;;;;;;-0.77;97.86;103075.06;4997985;28;20076;-87
2022/01/11 00:30:17;;;;;;;35.20;18.83;;;;;;;-0.77;97.98;103077.66;5030409;28;20038;-87
2022/01/11 00:32:48;;;;;;;43.28;19.45;;;;;;;-0.78;97.47;103081.09;5014407;28;20114;-87
2022/01/11 00:35:16;;;;;;;48.80;20.10;;;;;;;-0.81;98.13;103074.00;5014692;28;20060;-87
2022/01/11 00:37:43;;;;;;;57.00;20.27;;;;;;;-0.79;98.19;103072.38;5014270;28;20034;-87
2022/01/11 00:40:10;;;;;;;37.65;18.38;;;;;;;-0.78;98.16;103066.38;5013801;28;20427;-87
2022/01/11 00:42:37;;;;;;;42.97;17.75;;;;;;;-0.77;98.13;103060.34;5014162;28;20061;-87
2022/01/11 00:45:05;;;;;;;43.58;20.85;;;;;;;-0.76;98.48;103063.88;5013934;28;20449;-86
2022/01/11 00:47:30;;;;;;;54.63;19.17;;;;;;;-0.77;98.33;103062.94;5000375;28;20047;-87
2022/01/11 00:49:56;;;;;;;50.25;20.65;;;;;;;-0.78;98.12;103061.16;5016880;28;20449;-87
2022/01/11 00:52:21;;;;;;;44.67;17.75;;;;;;;-0.80;98.13;103054.97;5033584;28;20044;-87
2022/01/11 00:54:47;;;;;;;34.22;19.20;;;;;;;-0.81;98.34;103065.28;5033375;28;20120;-87
2022/01/11 00:57:13;;;;;;;50.88;21.38;;;;;;;-0.79;98.55;103076.66;5033396;28;20091;-87
2022/01/11 00:59:38;;;;;;;37.83;19.08;;;;;;;-0.79;98.64;103074.06;5016803;28;20396;-87
2022/01/11 01:02:04;;;;;;;33.03;17.92;;;;;;;-0.80;98.23;103080.09;5016764;28;20041;-87
2022/01/11 01:04:30;;;;;;;44.55;18.42;;;;;;;-0.76;98.44;103085.56;5016747;28;20135;-87
2022/01/11 01:06:56;;;;;;;43.42;21.20;;;;;;;-0.76;98.29;103082.06;5032949;28;20139;-86
2022/01/11 01:09:24;;;;;;;35.50;19.90;;;;;;;-0.78;98.49;103078.47;5033064;28;20124;-87
2022/01/11 01:11:51;;;;;;;38.72;20.05;;;;;;;-0.79;98.18;103077.59;5016782;28;20135;-87
2022/01/11 01:14:17;;;;;;;39.25;19.35;;;;;;;-0.79;98.29;103068.84;5017173;28;20055;-87
2022/01/11 01:16:45;;;;;;;50.38;20.05;;;;;;;-0.79;98.43;103069.78;5016980;28;20554;-87
2022/01/11 01:19:19;;;;;;;38.28;20.75;;;;;;;-0.79;98.55;103069.78;5029453;28;20072;-86
2022/01/11 01:21:47;;;;;;;36.65;18.50;;;;;;;-0.76;98.42;103069.97;4996542;28;20049;-87
2022/01/11 01:24:14;;;;;;;38.85;18.80;;;;;;;-0.76;98.43;103080.38;5012264;28;20099;-86
2022/01/11 01:26:39;;;;;;;50.42;20.40;;;;;;;-0.76;98.27;103085.56;5028889;28;20040;-87
2022/01/11 01:29:05;;;;;;;36.55;19.23;;;;;;;-0.76;98.55;103079.47;5012541;28;20422;-86
2022/01/11 01:31:32;;;;;;;44.08;20.60;;;;;;;-0.76;98.44;103088.16;5012523;28;20160;-87
2022/01/11 01:34:03;;;;;;;46.00;20.15;;;;;;;-0.75;98.21;103083.84;5029378;28;20037;-87
2022/01/11 01:36:29;;;;;;;39.47;18.73;;;;;;;-0.75;98.41;103084.75;5029377;28;20044;-87
2022/01/11 01:38:54;;;;;;;47.95;19.30;;;;;;;-0.72;98.06;103078.84;4996213;28;20033;-87
2022/01/11 01:41:21;;;;;;;39.30;19.17;;;;;;;-0.72;98.51;103086.63;5012803;28;20037;-87
2022/01/11 01:43:54;;;;;;;41.35;19.08;;;;;;;-0.74;98.62;103075.22;5012811;28;20401;-87
2022/01/11 01:46:21;;;;;;;44.13;22.25;;;;;;;-0.77;98.38;103068.16;5029323;28;20461;-86
2022/01/11 01:48:47;;;;;;;40.17;20.45;;;;;;;-0.78;98.24;103068.97;5026050;28;20049;-87
2022/01/11 01:51:14;;;;;;;42.17;19.98;;;;;;;-0.79;98.36;103074.06;5032740;28;20033;-86
2022/01/11 01:53:47;;;;;;;42.95;20.60;;;;;;;-0.78;98.49;103078.47;5016305;28;20039;-86
2022/01/11 01:56:15;;;;;;;44.25;20.42;;;;;;;-0.77;98.60;103073.34;5049387;28;20047;-87
2022/01/11 01:58:42;;;;;;;42.97;20.73;;;;;;;-0.75;98.30;103089.06;5032667;28;20105;-87
2022/01/11 02:01:08;;;;;;;37.63;19.48;;;;;;;-0.74;98.47;103088.25;5032522;28;20080;-87
2022/01/11 02:03:40;;;;;;;47.53;20.33;;;;;;;-0.78;98.60;103079.38;5048922;28;20083;-87
2022/01/11 02:06:12;;;;;;;43.33;19.80;;;;;;;-0.75;98.25;103083.84;5049226;28;20033;-87
2022/01/11 02:08:39;;;;;;;48.03;21.50;;;;;;;-0.79;98.17;103085.41;5032425;28;20029;-87
2022/01/11 02:11:06;;;;;;;35.88;17.48;;;;;;;-0.81;97.91;103081.78;4999793;28;20191;-87
2022/01/11 02:13:32;;;;;;;50.78;20.90;;;;;;;-0.80;97.81;103096.59;4999979;28;20037;-87
2022/01/11 02:15:59;;;;;;;51.15;22.33;;;;;;;-0.84;98.33;103096.31;5032533;28;20028;-86
2022/01/11 02:18:26;;;;;;;42.85;20.38;;;;;;;-0.85;98.25;103099.72;5032634;28;20060;-87
2022/01/11 02:20:58;;;;;;;41.25;20.60;;;;;;;-0.86;98.64;103109.22;5015066;28;20063;-87
2022/01/11 02:23:29;;;;;;;49.78;19.85;;;;;;;-0.87;98.55;103117.81;5013057;28;20113;-86
2022/01/11 02:25:57;;;;;;;42.92;19.77;;;;;;;-0.85;98.50;103116.22;4996697;28;20060;-86
2022/01/11 02:28:24;;;;;;;49.88;19.60;;;;;;;-0.84;98.53;103114.50;5012604;28;20033;-87
2022/01/11 02:30:51;;;;;;;46.75;20.10;;;;;;;-0.85;98.50;103112.72;5012698;28;20037;-87
2022/01/11 02:33:32;;;;;;;43.03;21.15;;;;;;;-0.88;98.38;103121.25;5012737;28;20109;-87
2022/01/11 02:36:13;;;;;;;47.45;20.73;;;;;;;-0.89;98.39;103130.75;5028997;28;20057;-87
2022/01/11 02:38:39;;;;;;;49.78;20.98;;;;;;;-0.89;98.54;103130.75;5012348;28;20080;-86
2022/01/11 02:41:05;;;;;;;51.80;19.83;;;;;;;-0.88;98.63;103132.53;5038303;28;20424;-86
2022/01/11 02:43:31;;;;;;;43.70;20.70;;;;;;;-0.88;98.54;103126.44;5031320;28;20392;-86
2022/01/11 02:46:01;;;;;;;51.90;20.98;;;;;;;-0.83;98.88;103135.44;5032601;28;20044;-86
2022/01/11 02:48:30;;;;;;;45.88;19.38;;;;;;;-0.83;98.98;103130.22;5016310;28;20772;-86
2022/01/11 02:50:56;;;;;;;46.95;20.42;;;;;;;-0.81;98.48;103136.44;5032397;28;20030;-87
2022/01/11 02:53:22;;;;;;;54.28;23.42;;;;;;;-0.80;98.98;103135.59;4999783;28;20037;-87
2022/01/11 02:55:48;;;;;;;44.67;20.08;;;;;;;-0.77;98.71;103137.50;5032177;28;20180;-86
2022/01/11 02:58:14;;;;;;;42.17;20.67;;;;;;;-0.78;98.31;103140.91;5015671;28;20029;-87
2022/01/11 03:00:40;;;;;;;52.30;22.08;;;;;;;-0.81;98.73;103141.63;5015605;28;20036;-87
2022/01/11 03:03:13;;;;;;;43.25;20.30;;;;;;;-0.80;98.57;103148.63;5015760;28;20151;-86
2022/01/11 03:05:47;;;;;;;38.00;19.55;;;;;;;-0.75;98.34;103135.91;5014827;28;20033;-87
2022/01/11 03:08:15;;;;;;;49.28;21.77;;;;;;;-0.80;98.46;103137.31;5031712;28;20042;-86
2022/01/11 03:10:41;;;;;;;46.10;20.40;;;;;;;-0.81;98.48;103130.34;5015310;28;20045;-87
2022/01/11 03:13:08;;;;;;;45.67;19.35;;;;;;;-0.84;98.18;103122.31;4999209;28;20521;-87
2022/01/11 03:15:38;;;;;;;49.42;21.85;;;;;;;-0.79;98.14;103141.69;5015786;28;20041;-86
2022/01/11 03:18:07;;;;;;;55.03;24.77;;;;;;;-0.82;98.17;103133.72;5031643;28;20040;-87
2022/01/11 03:20:39;;;;;;;43.80;20.80;;;;;;;-0.79;98.41;103141.69;5031833;28;20489;-86
2022/01/11 03:23:06;;;;;;;48.08;20.83;;;;;;;-0.80;98.49;103151.22;5031647;28;20041;-87
2022/01/11 03:25:33;;;;;;;52.58;23.70;;;;;;;-0.79;98.27;103141.69;4998851;28;20129;-86
2022/01/11 03:27:59;;;;;;;49.60;22.67;;;;;;;-0.80;98.44;103143.41;4998851;28;20033;-86
2022/01/11 03:30:26;;;;;;;55.28;23.45;;;;;;;-0.79;98.11;103128.69;5031325;28;20381;-87
2022/01/11 03:32:54;;;;;;;46.70;21.13;;;;;;;-0.82;98.35;103132.00;5014954;28;20105;-86
2022/01/11 03:35:29;;;;;;;48.25;20.83;;;;;;;-0.78;97.87;103127.91;5032047;28;20449;-86
2022/01/11 03:37:56;;;;;;;48.80;21.08;;;;;;;-0.78;98.16;103133.13;5014676;28;20180;-87
2022/01/11 03:40:24;;;;;;;51.80;21.20;;;;;;;-0.80;98.02;103129.50;4982441;28;20078;-86
2022/01/11 03:42:51;;;;;;;47.75;21.45;;;;;;;-0.80;98.03;103119.09;5031458;28;20034;-86
2022/01/11 03:45:21;;;;;;;46.05;20.67;;;;;;;-0.78;97.85;103135.72;5031509;28;20445;-87
2022/01/11 03:47:49;;;;;;;45.15;20.13;;;;;;;-0.82;98.30;103133.72;5036238;28;20029;-87
2022/01/11 03:50:15;;;;;;;45.88;20.75;;;;;;;-0.82;97.99;103137.22;5050899;28;20064;-87
2022/01/11 03:52:41;;;;;;;46.67;21.20;;;;;;;-0.81;98.10;103144.22;5034238;28;20024;-86
2022/01/11 03:55:13;;;;;;;44.30;20.42;;;;;;;-0.83;97.87;103130.22;5034459;28;20492;-86
2022/01/11 03:57:45;;;;;;;44.22;21.75;;;;;;;-0.80;97.71;103133.00;5020547;28;20572;-87
2022/01/11 04:00:15;;;;;;;54.83;23.92;;;;;;;-0.78;97.89;103138.31;5034305;28;20025;-87
2022/01/11 04:02:44;;;;;;;46.97;21.48;;;;;;;-0.76;97.89;103145.41;5051014;28;20029;-87
2022/01/11 04:05:14;;;;;;;45.50;22.73;;;;;;;-0.77;97.82;103143.59;5018948;28;20033;-86
2022/01/11 04:07:43;;;;;;;49.90;22.10;;;;;;;-0.76;97.49;103141.91;5034283;28;20326;-87
2022/01/11 04:10:10;;;;;;;44.72;21.85;;;;;;;-0.76;97.88;103145.41;5017815;28;20111;-86
2022/01/11 04:12:37;;;;;;;47.58;22.52;;;;;;;-0.75;97.68;103147.19;5050707;28;20064;-86
2022/01/11 04:15:03;;;;;;;48.03;22.98;;;;;;;-0.78;97.24;103146.13;5034067;28;20128;-86
2022/01/11 04:17:28;;;;;;;50.50;21.50;;;;;;;-0.78;97.10;103149.63;5050575;28;20060;-86
2022/01/11 04:19:54;;;;;;;51.58;22.77;;;;;;;-0.79;97.53;103139.09;5001251;28;20052;-87
2022/01/11 04:22:19;;;;;;;44.22;21.88;;;;;;;-0.80;97.58;103138.22;5034148;28;20115;-86
2022/01/11 04:24:46;;;;;;;46.58;21.48;;;;;;;-0.80;97.73;103147.72;5017496;28;20123;-86
2022/01/11 04:27:11;;;;;;;44.63;21.40;;;;;;;-0.83;97.72;103152.75;5034117;28;20079;-86
2022/01/11 04:29:38;;;;;;;44.78;21.58;;;;;;;-0.85;97.53;103150.03;5017411;28;20094;-86
2022/01/11 04:32:05;;;;;;;49.25;23.65;;;;;;;-0.85;97.59;103149.16;5050525;28;20051;-86
2022/01/11 04:34:30;;;;;;;46.00;21.73;;;;;;;-0.84;97.50;103158.72;5033246;28;20386;-86
2022/01/11 04:36:56;;;;;;;52.10;23.58;;;;;;;-0.89;97.58;103161.03;5033334;28;20128;-87
2022/01/11 04:39:24;;;;;;;48.35;21.98;;;;;;;-0.92;97.56;103164.34;5001868;28;20091;-86
2022/01/11 04:41:50;;;;;;;59.00;23.73;;;;;;;-0.95;97.66;103166.78;5033858;28;20033;-87
2022/01/11 04:44:17;;;;;;;50.03;22.60;;;;;;;-0.93;97.36;103162.56;5034123;28;20116;-86
2022/01/11 04:46:43;;;;;;;45.72;22.35;;;;;;;-0.95;97.57;103163.28;5050396;28;20127;-86
2022/01/11 04:49:08;;;;;;;42.35;22.65;;;;;;;-0.96;97.25;103169.31;5030524;28;20077;-86
2022/01/11 04:51:35;;;;;;;46.40;23.67;;;;;;;-0.97;97.30;103170.09;5013708;28;20448;-87
2022/01/11 04:54:02;;;;;;;48.63;21.48;;;;;;;-0.99;97.70;103158.69;4998137;28;20378;-86
2022/01/11 04:56:28;;;;;;;46.95;23.42;;;;;;;-1.01;97.74;103155.13;5030016;28;20038;-86
2022/01/11 04:58:56;;;;;;;45.03;21.10;;;;;;;-1.00;97.60;103149.97;5013679;28;20094;-86
2022/01/11 05:01:22;;;;;;;47.65;23.38;;;;;;;-1.03;97.63;103151.50;5013632;28;20526;-86
2022/01/11 05:03:48;;;;;;;48.42;22.52;;;;;;;-1.02;97.48;103158.50;5013490;28;20041;-86
2022/01/11 05:06:13;;;;;;;48.35;24.02;;;;;;;-1.03;97.51;103156.72;5029473;28;20466;-86
2022/01/11 05:08:39;;;;;;;42.88;21.27;;;;;;;-1.05;97.81;103156.59;5013599;28;20033;-86
2022/01/11 05:11:07;;;;;;;43.13;20.98;;;;;;;-1.05;97.29;103154.00;5013509;28;20073;-86
2022/01/11 05:13:32;;;;;;;48.08;22.60;;;;;;;-1.08;97.32;103146.00;5013536;28;20077;-86
2022/01/11 05:16:02;;;;;;;43.08;21.65;;;;;;;-1.11;97.25;103138.91;5014166;28;20118;-86
2022/01/11 05:18:29;;;;;;;48.85;23.05;;;;;;;-1.11;97.12;103151.94;5029970;28;20088;-86
2022/01/11 05:20:55;;;;;;;43.97;22.15;;;;;;;-1.14;97.30;103149.13;5044543;28;20083;-87
2022/01/11 05:23:21;;;;;;;41.50;19.80;;;;;;;-1.16;97.16;103140.34;5013496;28;20033;-86
2022/01/11 05:25:46;;;;;;;48.90;23.50;;;;;;;-1.15;97.05;103149.03;5029928;28;20502;-87
2022/01/11 05:28:12;;;;;;;55.60;25.23;;;;;;;-1.18;97.05;103141.03;5013024;28;20125;-86
2022/01/11 05:30:39;;;;;;;45.28;21.83;;;;;;;-1.19;96.96;103144.44;5013262;28;20036;-86
2022/01/11 05:33:05;;;;;;;44.00;21.77;;;;;;;-1.22;97.47;103154.63;5029723;28;20097;-86
2022/01/11 05:35:31;;;;;;;55.22;24.40;;;;;;;-1.25;97.16;103151.84;5013256;28;20136;-86
2022/01/11 05:37:57;;;;;;;46.33;21.67;;;;;;;-1.26;97.48;103152.63;5029861;28;20037;-86
2022/01/11 05:40:24;;;;;;;50.30;23.90;;;;;;;-1.30;97.25;103161.97;5046943;28;20030;-86
2022/01/11 05:42:55;;;;;;;52.97;24.27;;;;;;;-1.33;96.87;103156.56;4998779;28;20065;-87
2022/01/11 05:45:22;;;;;;;52.63;25.52;;;;;;;-1.39;97.02;103158.75;5013792;28;20133;-87
2022/01/11 05:47:52;;;;;;;48.72;22.98;;;;;;;-1.39;97.13;103156.16;4995164;28;20151;-86
2022/01/11 05:50:19;;;;;;;50.10;22.90;;;;;;;-1.39;96.98;103162.25;5029857;28;20030;-86
2022/01/11 05:52:45;;;;;;;54.75;24.23;;;;;;;-1.42;96.99;103166.38;5013621;28;20026;-87
2022/01/11 05:55:12;;;;;;;52.92;22.38;;;;;;;-1.42;96.92;103168.97;4997269;28;20053;-86
2022/01/11 05:57:38;;;;;;;57.03;24.55;;;;;;;-1.44;96.95;103170.56;4997017;28;20373;-87
2022/01/11 06:00:10;;;;;;;51.17;24.73;;;;;;;-1.46;97.22;103180.84;5013311;28;20163;-86
2022/01/11 06:02:47;;;;;;;46.40;21.63;;;;;;;-1.45;96.84;103187.88;5029708;28;20041;-86
2022/01/11 06:05:19;;;;;;;56.47;26.15;;;;;;;-1.48;97.30;103184.16;5014129;28;20053;-86
2022/01/11 06:07:48;;;;;;;55.90;26.02;;;;;;;-1.50;97.22;103189.25;5013641;28;20412;-86
2022/01/11 06:10:14;;;;;;;57.28;26.30;;;;;;;-1.52;96.50;103194.34;4980295;28;20050;-87
2022/01/11 06:12:42;;;;;;;54.35;23.35;;;;;;;-1.53;97.22;103202.06;5029477;28;20044;-86
2022/01/11 06:15:09;;;;;;;56.10;26.70;;;;;;;-1.55;97.08;103212.34;4996877;28;20068;-86
2022/01/11 06:17:34;;;;;;;54.53;25.75;;;;;;;-1.55;97.05;103217.53;5014168;28;20029;-86
2022/01/11 06:20:05;;;;;;;50.20;23.42;;;;;;;-1.62;97.11;103207.53;5033164;28;20037;-86
2022/01/11 06:22:31;;;;;;;54.17;24.98;;;;;;;-1.57;96.90;103213.06;5000232;28;20493;-86
2022/01/11 06:24:57;;;;;;;56.72;26.00;;;;;;;-1.59;96.83;103218.13;5016563;28;20031;-86
2022/01/11 06:27:22;;;;;;;47.45;22.25;;;;;;;-1.64;96.79;103209.13;4983803;28;20072;-86
2022/01/11 06:29:48;;;;;;;52.33;25.55;;;;;;;-1.61;96.84;103214.53;5000061;28;20068;-86
2022/01/11 06:32:13;;;;;;;51.60;24.55;;;;;;;-1.59;96.91;103214.63;5016225;28;20048;-86
2022/01/11 06:34:39;;;;;;;51.25;23.15;;;;;;;-1.62;96.75;103217.03;4999779;28;20042;-86
2022/01/11 06:37:05;;;;;;;52.95;23.88;;;;;;;-1.63;96.32;103220.41;5015966;28;20040;-86
2022/01/11 06:39:36;;;;;;;53.95;25.52;;;;;;;-1.64;96.61;103223.84;5000379;28;20033;-86
2022/01/11 06:42:04;;;;;;;51.28;23.77;;;;;;;-1.65;96.91;103222.94;5015809;28;20470;-86
2022/01/11 06:44:30;;;;;;;51.35;23.38;;;;;;;-1.65;96.78;103232.44;4983858;28;20137;-86
2022/01/11 06:46:56;;;;;;;56.08;24.52;;;;;;;-1.65;96.63;103222.94;5016076;28;20091;-86
2022/01/11 06:49:22;;;;;;;58.03;26.08;;;;;;;-1.70;96.41;103226.03;5015972;28;20049;-86
2022/01/11 06:51:48;;;;;;;55.28;24.77;;;;;;;-1.69;96.72;103222.63;5015531;28;20515;-86
2022/01/11 06:54:15;;;;;;;55.20;25.10;;;;;;;-1.66;96.45;103230.63;5016273;28;20052;-86
2022/01/11 06:56:43;;;;;;;50.47;24.27;;;;;;;-1.67;96.87;103234.91;5016037;28;20038;-86
2022/01/11 06:59:09;;;;;;;54.58;24.38;;;;;;;-1.69;96.51;103231.31;4999546;28;20061;-86
2022/01/11 07:01:36;;;;;;;52.55;24.83;;;;;;;-1.70;96.71;103226.03;5032171;28;20045;-86
2022/01/11 07:04:06;;;;;;;49.58;22.95;;;;;;;-1.67;96.61;103227.13;5016056;28;20044;-86
2022/01/11 07:06:41;;;;;;;45.30;22.65;;;;;;;-1.68;96.37;103230.53;5031701;28;20033;-86
2022/01/11 07:09:07;;;;;;;54.28;23.90;;;;;;;-1.68;96.83;103234.81;5032223;28;20044;-87
2022/01/11 07:11:35;;;;;;;46.03;22.17;;;;;;;-1.71;96.83;103235.50;4999507;28;20343;-86
2022/01/11 07:14:03;;;;;;;50.50;24.27;;;;;;;-1.72;96.78;103241.50;4999062;28;20048;-86
2022/01/11 07:16:29;;;;;;;53.78;25.38;;;;;;;-1.74;96.82;103241.41;5015167;28;20121;-80
2022/01/11 07:18:55;;;;;;;52.90;25.02;;;;;;;-1.77;96.39;103245.50;5033058;28;20124;-81
2022/01/11 07:21:21;;;;;;;55.08;22.75;;;;;;;-1.78;96.76;103252.41;5035233;28;20145;-80
2022/01/11 07:23:47;;;;;;;47.10;22.70;;;;;;;-1.79;96.93;103255.78;5050660;28;20312;-78
2022/01/11 07:26:13;;;;;;;52.42;24.40;;;;;;;-1.78;96.86;103254.06;5034441;28;20123;-78
2022/01/11 07:28:40;;;;;;;49.08;23.98;;;;;;;-1.78;96.65;103257.59;5049776;28;20490;-78
2022/01/11 07:31:10;;;;;;;49.95;22.55;;;;;;;-1.78;96.81;103261.88;5050531;28;20037;-78
2022/01/11 07:33:42;;;;;;;48.10;22.73;;;;;;;-1.79;96.52;103267.88;5034493;28;20082;-78
2022/01/11 07:36:08;;;;;;;44.45;21.42;;;;;;;-1.81;96.38;103270.34;5050105;28;20413;-78
2022/01/11 07:38:35;;;;;;;49.95;22.38;;;;;;;-1.81;96.87;103275.53;5050029;28;20144;-78
2022/01/11 07:41:06;;;;;;;50.00;23.42;;;;;;;-1.80;96.81;103289.47;5018664;28;20051;-78
2022/01/11 07:43:42;;;;;;;41.20;20.35;;;;;;;-1.82;96.79;103291.94;5049708;28;20510;-79
2022/01/11 07:46:19;;;;;;;45.22;22.58;;;;;;;-1.82;96.85;103288.44;5049052;28;20083;-81
2022/01/11 07:48:49;;;;;;;65.28;32.47;;;;;;;-1.83;96.74;103282.38;5048743;28;20076;-79
2022/01/11 07:51:16;;;;;;;41.38;21.75;;;;;;;-1.83;97.29;103287.56;5033313;28;20075;-78
2022/01/11 07:53:43;;;;;;;47.40;23.23;;;;;;;-1.82;97.02;103286.75;5033606;28;20033;-78
2022/01/11 07:56:14;;;;;;;44.90;22.92;;;;;;;-1.81;97.20;103292.84;5050019;28;20043;-78
2022/01/11 07:58:39;;;;;;;45.97;22.60;;;;;;;-1.80;97.02;103292.06;5049593;28;20132;-78
2022/01/11 08:01:07;;;;;;;45.45;23.65;;;;;;;-1.80;96.88;103295.56;5033711;28;20086;-78
2022/01/11 08:03:40;;;;;;;47.53;24.30;;;;;;;-1.78;97.08;103290.44;5049778;28;20047;-78
2022/01/11 08:06:14;;;;;;;46.00;22.08;;;;;;;-1.78;97.02;103280.03;5050075;28;20136;-78
2022/01/11 08:08:42;;;;;;;50.70;23.05;;;;;;;-1.76;97.04;103278.47;5033347;28;20041;-78
2022/01/11 08:11:08;;;;;;;41.45;20.52;;;;;;;-1.73;96.85;103279.59;5033122;28;20536;-78
2022/01/11 08:13:35;;;;;;;41.38;22.08;;;;;;;-1.69;96.92;103287.56;5032843;28;20099;-78
2022/01/11 08:16:01;;;;;;;43.50;22.88;;;;;;;-1.65;97.13;103287.91;5049935;28;20036;-78
2022/01/11 08:18:26;;;;;;;44.97;21.30;;;;;;;-1.61;97.30;103287.28;5033348;28;20033;-78
2022/01/11 08:20:53;;;;;;;43.85;21.33;;;;;;;-1.55;97.60;103285.09;5013554;28;20033;-78
2022/01/11 08:23:20;;;;;;;44.90;21.50;;;;;;;-1.50;97.15;103290.63;5030052;28;20049;-78
2022/01/11 08:25:45;;;;;;;45.15;21.83;;;;;;;-1.44;96.79;103292.72;5013485;28;20409;-78
2022/01/11 08:28:13;;;;;;;47.70;22.73;;;;;;;-1.39;97.29;103291.31;5013487;28;20052;-78
2022/01/11 08:30:42;;;;;;;48.22;23.67;;;;;;;-1.31;97.14;103295.34;5013500;28;20128;-78
2022/01/11 08:33:12;;;;;;;39.72;20.50;;;;;;;-1.24;97.14;103296.63;5029886;28;20472;-78
2022/01/11 08:35:39;;;;;;;49.33;23.20;;;;;;;-1.20;96.63;103293.44;4997656;28;20120;-78
2022/01/11 08:38:06;;;;;;;64.80;21.75;;;;;;;-1.14;96.82;103286.94;5029556;28;20037;-79
2022/01/11 08:40:32;;;;;;;39.83;19.10;;;;;;;-1.10;96.56;103294.13;5028803;28;20032;-79
2022/01/11 08:43:04;;;;;;;42.67;19.90;;;;;;;-1.07;96.45;103293.44;5029628;28;20136;-79
2022/01/11 08:45:33;;;;;;;46.05;21.67;;;;;;;-1.04;96.18;103291.03;5013270;28;20033;-78
2022/01/11 08:48:04;;;;;;;44.67;20.73;;;;;;;-0.99;96.52;103293.91;5020479;28;20032;-78
2022/01/11 08:50:32;;;;;;;39.85;21.38;;;;;;;-0.95;95.91;103290.72;5049101;28;20053;-79
2022/01/11 08:52:58;;;;;;;44.58;21.50;;;;;;;-0.91;96.15;103308.34;5032465;28;20227;-79
2022/01/11 08:55:24;;;;;;;49.67;20.73;;;;;;;-0.88;95.87;103300.72;5049093;28;20473;-80
2022/01/11 08:57:51;;;;;;;46.40;18.77;;;;;;;-0.85;96.03;103306.13;5048974;28;20037;-79
2022/01/11 09:00:18;;;;;;;51.25;21.20;;;;;;;-0.83;95.93;103301.03;5050410;28;20032;-79
2022/01/11 09:02:54;;;;;;;53.58;20.38;;;;;;;-0.78;95.89;103305.72;5049045;28;20039;-77
2022/01/11 09:05:22;;;;;;;33.35;18.40;;;;;;;-0.73;96.11;103303.41;5048508;28;20062;-78
2022/01/11 09:07:49;;;;;;;42.17;20.42;;;;;;;-0.66;96.16;103301.28;5032905;28;20040;-79
2022/01/11 09:10:15;;;;;;;66.22;23.75;;;;;;;-0.59;96.56;103306.88;5048198;28;20110;-78
2022/01/11 09:12:41;;;;;;;53.15;20.70;;;;;;;-0.54;96.36;103306.38;5048678;28;20095;-78
2022/01/11 09:15:10;;;;;;;88.88;24.23;;;;;;;-0.48;96.22;103317.16;5032066;28;20041;-78
2022/01/11 09:17:37;;;;;;;71.18;22.40;;;;;;;-0.44;95.73;103308.75;5048800;28;20044;-78
2022/01/11 09:20:09;;;;;;;91.97;21.25;;;;;;;-0.40;95.53;103304.63;5039320;28;20064;-77
2022/01/11 09:22:35;;;;;;;48.15;19.20;;;;;;;-0.34;95.89;103304.13;5028971;28;20033;-78
2022/01/11 09:25:02;;;;;;;38.22;18.38;;;;;;;-0.28;95.63;103310.59;5012544;28;20033;-78
2022/01/11 09:27:35;;;;;;;31.55;17.90;;;;;;;-0.19;95.92;103307.69;5028627;28;20033;-81
2022/01/11 09:30:07;;;;;;;34.85;18.13;;;;;;;-0.13;95.76;103312.34;5028794;28;20037;-78
2022/01/11 09:32:38;;;;;;;36.03;18.52;;;;;;;-0.09;95.20;103315.25;5012764;28;20083;-78
2022/01/11 09:35:08;;;;;;;38.20;19.00;;;;;;;-0.03;94.53;103312.13;5028549;28;20043;-78
2022/01/11 09:37:36;;;;;;;31.27;16.95;;;;;;;0.03;94.56;103311.63;5028890;28;20115;-78
2022/01/11 09:40:04;;;;;;;35.85;17.92;;;;;;;0.07;93.61;103319.69;5028488;28;20059;-78
2022/01/11 09:42:29;;;;;;;45.05;18.05;;;;;;;0.13;94.28;103325.28;5028741;28;20044;-79
2022/01/11 09:44:58;;;;;;;33.65;17.17;;;;;;;0.16;94.36;103322.84;5028276;28;20109;-79
2022/01/11 09:47:25;;;;;;;39.88;17.85;;;;;;;0.21;93.99;103325.75;5049160;28;20099;-80
2022/01/11 09:49:53;;;;;;;46.22;17.90;;;;;;;0.24;94.27;103323.31;5033936;28;20048;-79
2022/01/11 09:52:19;;;;;;;54.17;18.05;;;;;;;0.31;94.00;103325.47;5069934;28;20053;-80
2022/01/11 09:54:47;;;;;;;60.70;18.60;;;;;;;0.38;94.79;103330.25;5071013;28;20198;-79
2022/01/11 09:57:15;;;;;;;58.10;17.55;;;;;;;0.42;94.00;103329.66;5054329;28;20071;-79
2022/01/11 09:59:41;;;;;;;47.33;17.15;;;;;;;0.47;93.80;103329.94;5054401;28;20575;-79
2022/01/11 10:02:30;;;;;;;87.97;18.63;;;;;;;0.50;93.20;103324.88;5068429;28;20044;-80
2022/01/11 10:05:12;;;;;;;40.38;16.67;;;;;;;0.56;93.55;103322.63;5071303;28;20078;-79
2022/01/11 10:07:46;;;;;;;39.83;16.85;;;;;;;0.64;93.64;103334.44;5038509;28;20040;-79
2022/01/11 10:10:16;;;;;;;50.65;17.30;;;;;;;0.68;94.17;103332.88;5070630;28;20420;-79
2022/01/11 10:12:49;;;;;;;39.80;17.65;;;;;;;0.72;93.57;103329.66;5070913;28;20390;-79
2022/01/11 10:15:27;;;;;;;37.45;16.85;;;;;;;0.74;93.21;103335.88;5071024;28;20131;-80
2022/01/11 10:17:53;;;;;;;49.00;17.90;;;;;;;0.78;92.42;103339.53;5051816;28;20075;-80
2022/01/11 10:20:25;;;;;;;49.50;18.50;;;;;;;0.79;92.93;103333.50;5023462;28;20060;-80
2022/01/11 10:23:05;;;;;;;49.50;18.13;;;;;;;0.81;92.29;103331.88;5032085;28;20515;-80
2022/01/11 10:25:45;;;;;;;56.33;17.50;;;;;;;0.85;92.32;103324.31;5032174;28;20551;-80
2022/01/11 10:28:12;;;;;;;75.38;18.15;;;;;;;0.90;92.65;103326.31;5032331;28;20044;-80
2022/01/11 10:30:41;;;;;;;46.65;16.83;;;;;;;0.94;92.04;103325.66;5016263;28;20034;-81
2022/01/11 10:33:09;;;;;;;43.88;18.08;;;;;;;0.97;91.77;103320.63;4983486;28;20034;-79
2022/01/11 10:35:44;;;;;;;53.28;16.77;;;;;;;1.00;92.13;103311.25;5032100;28;20038;-81
2022/01/11 10:38:26;;;;;;;30.00;15.63;;;;;;;1.07;91.85;103330.78;5015980;28;20538;-80
2022/01/11 10:40:52;;;;;;;31.38;13.85;;;;;;;1.12;91.79;103334.56;5031749;28;20034;-79
2022/01/11 10:43:22;;;;;;;29.80;15.05;;;;;;;1.17;91.58;103329.59;5033031;28;20112;-80
2022/01/11 10:46:00;;;;;;;34.65;14.18;;;;;;;1.22;91.68;103334.25;5015286;28;20461;-80
2022/01/11 10:48:28;;;;;;;29.17;14.15;;;;;;;1.27;91.04;103342.34;5042157;28;20032;-80
2022/01/11 10:51:01;;;;;;;23.15;12.95;;;;;;;1.31;90.59;103333.91;5035217;28;20082;-79
2022/01/11 10:53:39;;;;;;;26.65;14.50;;;;;;;1.34;90.38;103331.44;5051510;28;20505;-79
2022/01/11 10:56:08;;;;;;;27.35;14.45;;;;;;;1.39;90.64;103339.53;5051337;28;20148;-80
2022/01/11 10:58:40;;;;;;;34.83;15.00;;;;;;;1.39;89.07;103329.09;5035447;28;20037;-80
2022/01/11 11:01:11;;;;;;;25.27;13.10;;;;;;;1.44;89.32;103325.91;5051557;28;20029;-79
2022/01/11 11:03:37;;;;;;;24.83;12.98;;;;;;;1.44;89.62;103317.19;5033921;28;20103;-80
2022/01/11 11:06:11;;;;;;;23.40;12.38;;;;;;;1.45;89.73;103322.47;5052611;28;20192;-80
2022/01/11 11:08:47;;;;;;;20.90;12.27;;;;;;;1.48;89.82;103327.91;5050730;28;20060;-80
2022/01/11 11:11:21;;;;;;;28.02;13.68;;;;;;;1.49;89.17;103326.19;5051067;28;20059;-80
2022/01/11 11:14:06;;;;;;;26.02;12.85;;;;;;;1.52;89.73;103331.56;5050924;28;20581;-80
2022/01/11 11:16:39;;;;;;;28.27;13.60;;;;;;;1.53;88.67;103332.44;5034368;28;20064;-80
2022/01/11 11:19:06;;;;;;;26.77;12.73;;;;;;;1.57;88.95;103344.88;5050735;28;20025;-80